Time;durP1;ratioP1;P1;durP2;ratioP2;P2;SDS_P1;SDS_P2;PMS_P1;PMS_P2;Temp;Humidity;BMP_temperature;BMP_pressure;BME280_temperature;BME280_humidity;BME280_pressure;Samples;Min_cycle;Max_cycle;Signal;HPM_P1;HPM_P2
2023/03/29 00:01:57;;;;;;;9.15;3.50;;;;;;;5.21;57.10;101861.16;7389310;19;20006;-58
2023/03/29 00:04:26;;;;;;;9.85;3.60;;;;;;;5.26;56.97;101858.31;7392168;19;19998;-56
2023/03/29 00:06:55;;;;;;;8.18;3.38;;;;;;;5.27;56.66;101850.34;7390597;19;19990;-58
2023/03/29 00:09:21;;;;;;;12.30;3.20;;;;;;;5.25;56.67;101843.41;7392281;19;20040;-59
2023/03/29 00:11:46;;;;;;;10.65;3.80;;;;;;;5.28;56.33;101843.28;7388905;19;20002;-58
2023/03/29 00:14:12;;;;;;;9.35;3.40;;;;;;;5.27;56.26;101831.03;7389730;19;20066;-58
2023/03/29 00:16:38;;;;;;;8.50;2.75;;;;;;;5.29;56.22;101827.44;7388937;19;20014;-57
2023/03/29 00:19:04;;;;;;;8.38;3.20;;;;;;;5.42;55.89;101821.63;7389306;19;20017;-57
2023/03/29 00:21:30;;;;;;;11.98;3.40;;;;;;;5.40;55.98;101819.03;7391257;19;20003;-56
2023/03/29 00:23:56;;;;;;;11.80;3.38;;;;;;;5.24;56.56;101818.00;7390255;19;20009;-59
2023/03/29 00:26:22;;;;;;;8.18;3.22;;;;;;;5.17;56.68;101827.94;7388557;19;20019;-59
2023/03/29 00:28:47;;;;;;;10.27;4.03;;;;;;;5.23;56.33;101808.38;7389097;19;20006;-59
2023/03/29 00:31:15;;;;;;;9.68;3.30;;;;;;;5.26;56.25;101810.91;7389542;19;20082;-60
2023/03/29 00:33:42;;;;;;;10.32;3.65;;;;;;;5.31;55.85;101808.91;7386152;19;20077;-59
2023/03/29 00:36:09;;;;;;;11.05;3.58;;;;;;;5.21;56.46;101812.84;7388810;19;20479;-58
2023/03/29 00:38:35;;;;;;;7.38;3.10;;;;;;;5.29;56.11;101800.22;7390711;19;20003;-59
2023/03/29 00:41:01;;;;;;;11.43;3.50;;;;;;;5.38;55.97;101809.50;7391239;19;20332;-58
2023/03/29 00:43:29;;;;;;;7.78;3.20;;;;;;;5.31;55.98;101808.91;7387438;19;20007;-57
2023/03/29 00:45:55;;;;;;;9.75;3.17;;;;;;;5.25;56.34;101794.25;7388163;19;20395;-57
2023/03/29 00:48:28;;;;;;;9.50;3.40;;;;;;;5.35;56.18;101794.69;7389889;19;20002;-58
2023/03/29 00:51:07;;;;;;;7.38;3.33;;;;;;;5.31;56.04;101793.94;7397594;19;20006;-57
2023/03/29 00:53:49;;;;;;;11.43;3.22;;;;;;;5.33;56.42;101783.38;7393211;19;20092;-58
2023/03/29 00:56:28;;;;;;;6.80;3.38;;;;;;;5.32;56.16;101790.38;7395502;19;20034;-58
2023/03/29 00:59:06;;;;;;;9.23;3.70;;;;;;;5.23;56.71;101792.59;7395659;19;20472;-57
2023/03/29 01:01:47;;;;;;;9.15;3.58;;;;;;;5.18;56.93;101795.41;7395248;19;19998;-57
2023/03/29 01:04:31;;;;;;;8.75;3.50;;;;;;;5.20;56.59;101790.06;7395654;19;20028;-57
2023/03/29 01:07:08;;;;;;;8.75;3.50;;;;;;;5.15;56.21;101786.78;7392755;19;20009;-57
2023/03/29 01:09:36;;;;;;;8.77;3.47;;;;;;;5.11;56.53;101795.75;7397044;19;19990;-57
2023/03/29 01:12:12;;;;;;;9.48;3.45;;;;;;;5.18;56.25;101786.66;7396143;19;20027;-58
2023/03/29 01:14:44;;;;;;;10.40;3.75;;;;;;;5.18;55.92;101778.75;7396443;19;20006;-57
2023/03/29 01:17:11;;;;;;;8.10;3.30;;;;;;;5.18;56.03;101779.63;7394099;19;20021;-59
2023/03/29 01:19:43;;;;;;;9.85;3.53;;;;;;;5.24;55.84;101775.84;7397228;19;20005;-58
2023/03/29 01:22:40;;;;;;;11.25;3.50;;;;;;;5.25;55.43;101774.91;7395384;19;20462;-58
2023/03/29 01:25:14;;;;;;;10.90;3.40;;;;;;;5.23;55.77;101768.88;7394146;19;19994;-59
2023/03/29 01:28:02;;;;;;;10.75;3.30;;;;;;;5.17;56.12;101767.34;7396246;19;20017;-57
2023/03/29 01:30:37;;;;;;;9.50;3.42;;;;;;;5.17;56.23;101766.50;7396363;19;20018;-59
2023/03/29 01:33:19;;;;;;;9.48;3.40;;;;;;;5.17;56.23;101759.44;7392590;19;20007;-58
2023/03/29 01:36:00;;;;;;;11.75;3.50;;;;;;;5.17;56.18;101761.22;7395857;19;20002;-58
2023/03/29 01:38:38;;;;;;;8.27;3.15;;;;;;;5.13;56.47;101755.22;7394252;19;19995;-58
2023/03/29 01:41:04;;;;;;;10.05;3.78;;;;;;;5.08;56.99;101749.31;7393523;19;19998;-58
2023/03/29 01:43:52;;;;;;;11.02;3.92;;;;;;;5.10;57.05;101747.47;7393063;19;20007;-57
2023/03/29 01:46:37;;;;;;;8.25;3.20;;;;;;;5.07;57.53;101748.47;7394585;19;19999;-58
2023/03/29 01:49:10;;;;;;;13.50;3.65;;;;;;;5.15;57.11;101747.28;7394344;19;20095;-59
2023/03/29 01:51:41;;;;;;;11.75;3.80;;;;;;;5.09;57.09;101743.13;7396070;19;19999;-58
2023/03/29 01:54:15;;;;;;;8.80;3.80;;;;;;;5.14;57.14;101740.31;7394671;19;19998;-58
2023/03/29 01:56:44;;;;;;;10.93;3.50;;;;;;;5.16;57.16;101736.66;7391297;19;20003;-58
2023/03/29 01:59:14;;;;;;;8.77;3.50;;;;;;;5.10;57.31;101729.03;7396556;19;20084;-57
2023/03/29 02:01:47;;;;;;;7.90;3.50;;;;;;;5.07;57.37;101727.38;7394129;19;19998;-57
2023/03/29 02:04:18;;;;;;;11.40;4.00;;;;;;;4.94;57.95;101723.56;7393119;19;20003;-59
2023/03/29 02:06:46;;;;;;;10.52;3.60;;;;;;;4.81;58.76;101711.84;7390537;19;19999;-58
2023/03/29 02:09:12;;;;;;;8.38;3.78;;;;;;;4.74;58.96;101713.03;7395488;19;20002;-58
2023/03/29 02:11:41;;;;;;;9.25;3.95;;;;;;;4.80;59.10;101718.91;7394029;19;20519;-57
2023/03/29 02:14:06;;;;;;;10.40;3.70;;;;;;;4.81;58.97;101709.22;7394557;19;19999;-58
2023/03/29 02:16:37;;;;;;;11.95;3.97;;;;;;;4.77;59.44;101702.38;7390526;19;20027;-59
2023/03/29 02:19:06;;;;;;;11.60;4.22;;;;;;;4.69;59.41;101700.06;7394062;19;20111;-59
2023/03/29 02:22:00;;;;;;;11.48;4.25;;;;;;;4.65;59.89;101697.66;7397647;19;20002;-57
2023/03/29 02:24:31;;;;;;;11.20;3.83;;;;;;;4.66;59.94;101694.94;7394085;19;20101;-58
2023/03/29 02:26:57;;;;;;;7.80;3.83;;;;;;;4.62;60.25;101693.34;7394484;19;20006;-57
2023/03/29 02:29:25;;;;;;;9.80;4.05;;;;;;;4.66;60.12;101688.81;7392055;19;20007;-57
2023/03/29 02:31:57;;;;;;;10.38;4.40;;;;;;;4.67;60.32;101686.09;7390961;19;20483;-57
2023/03/29 02:34:29;;;;;;;10.18;4.43;;;;;;;4.63;60.42;101686.31;7390461;19;20008;-58
2023/03/29 02:36:59;;;;;;;11.20;4.65;;;;;;;4.62;60.63;101687.25;7390332;19;20002;-57
2023/03/29 02:39:27;;;;;;;11.85;4.75;;;;;;;4.68;60.46;101681.69;7392045;19;20002;-57
2023/03/29 02:41:54;;;;;;;10.98;4.90;;;;;;;4.61;60.79;101678.50;7393042;19;20025;-57
2023/03/29 02:44:23;;;;;;;11.93;4.32;;;;;;;4.64;60.92;101670.47;7391686;19;20075;-58
2023/03/29 02:47:01;;;;;;;10.27;4.32;;;;;;;4.72;60.79;101673.63;7391912;19;20006;-61
2023/03/29 02:49:28;;;;;;;10.32;5.32;;;;;;;4.70;60.82;101667.56;7394587;19;20070;-58
2023/03/29 02:51:57;;;;;;;10.13;4.80;;;;;;;4.63;61.46;101666.09;7390075;19;20018;-59
2023/03/29 02:54:28;;;;;;;13.02;5.70;;;;;;;4.62;61.65;101667.03;7392666;19;20325;-59
2023/03/29 02:56:59;;;;;;;11.02;5.15;;;;;;;4.66;61.83;101655.44;7391401;19;20032;-58
2023/03/29 02:59:28;;;;;;;13.02;5.45;;;;;;;4.63;62.00;101652.09;7393146;19;20119;-59
2023/03/29 03:01:54;;;;;;;14.02;6.55;;;;;;;4.70;62.13;101658.81;7392998;19;20002;-58
2023/03/29 03:04:20;;;;;;;13.05;6.22;;;;;;;4.74;62.04;101645.44;7393268;19;20074;-59
2023/03/29 03:06:47;;;;;;;11.80;6.60;;;;;;;4.80;62.38;101646.97;7389316;19;20450;-58
2023/03/29 03:09:13;;;;;;;11.80;6.35;;;;;;;4.78;62.20;101648.81;7391587;19;20003;-58
2023/03/29 03:11:39;;;;;;;11.13;5.78;;;;;;;4.76;62.51;101648.03;7391862;19;20007;-58
2023/03/29 03:14:06;;;;;;;12.35;6.20;;;;;;;4.74;62.87;101636.69;7390212;19;20002;-59
2023/03/29 03:16:32;;;;;;;13.77;6.78;;;;;;;4.74;63.09;101634.06;7388712;19;20056;-58
2023/03/29 03:18:59;;;;;;;15.18;7.03;;;;;;;4.81;63.28;101632.88;7391817;19;19999;-61
2023/03/29 03:21:27;;;;;;;14.65;7.50;;;;;;;4.82;63.64;101630.16;7392034;19;19991;-58
2023/03/29 03:23:53;;;;;;;15.05;7.35;;;;;;;4.81;63.72;101630.25;7391259;19;20011;-59
2023/03/29 03:26:19;;;;;;;12.98;7.40;;;;;;;4.77;63.93;101634.78;7390351;19;19994;-58
2023/03/29 03:28:45;;;;;;;14.63;7.45;;;;;;;4.69;64.49;101628.16;7391812;19;20098;-57
2023/03/29 03:31:14;;;;;;;14.45;7.80;;;;;;;4.74;64.44;101623.53;7391908;19;19998;-58
2023/03/29 03:33:40;;;;;;;16.45;7.97;;;;;;;4.77;64.39;101620.78;7390138;19;19991;-60
2023/03/29 03:36:10;;;;;;;13.40;8.52;;;;;;;4.81;64.60;101615.31;7388679;19;20006;-58
2023/03/29 03:38:37;;;;;;;15.10;7.93;;;;;;;4.73;65.28;101614.78;7392039;19;20002;-59
2023/03/29 03:41:04;;;;;;;14.10;8.77;;;;;;;4.74;65.36;101611.22;7391750;19;19999;-58
2023/03/29 03:43:30;;;;;;;12.77;7.82;;;;;;;4.78;65.50;101606.69;7390310;19;20027;-59
2023/03/29 03:45:56;;;;;;;15.77;8.80;;;;;;;4.82;65.61;101600.34;7388754;19;20003;-58
2023/03/29 03:48:22;;;;;;;14.32;9.10;;;;;;;4.81;65.45;101603.91;7389789;19;19999;-58
2023/03/29 03:50:50;;;;;;;12.75;8.00;;;;;;;4.88;65.33;101602.72;7392179;19;20003;-59
2023/03/29 03:53:17;;;;;;;18.60;9.48;;;;;;;4.85;65.89;101605.50;7386612;19;20114;-59
2023/03/29 03:55:54;;;;;;;16.42;9.65;;;;;;;4.74;66.55;101610.38;7390391;19;19995;-59
2023/03/29 03:58:21;;;;;;;14.15;8.88;;;;;;;4.77;66.56;101612.88;7391970;19;19998;-59
2023/03/29 04:00:48;;;;;;;16.58;9.90;;;;;;;4.78;66.85;101604.06;7391148;19;20019;-58
2023/03/29 04:03:15;;;;;;;16.48;9.52;;;;;;;4.76;67.01;101604.13;7390708;19;20058;-58
2023/03/29 04:05:43;;;;;;;15.98;9.25;;;;;;;4.89;66.54;101588.63;7387612;19;19999;-58
2023/03/29 04:08:11;;;;;;;16.15;9.90;;;;;;;4.91;66.89;101596.47;7390064;19;20003;-57
2023/03/29 04:10:37;;;;;;;17.30;9.80;;;;;;;4.92;67.14;101592.91;7390535;19;20006;-58
2023/03/29 04:13:03;;;;;;;14.80;9.82;;;;;;;4.92;66.94;101591.13;7390526;19;19990;-59
2023/03/29 04:15:31;;;;;;;16.70;10.07;;;;;;;4.93;67.43;101592.84;7389821;19;20070;-58
2023/03/29 04:17:59;;;;;;;18.23;10.63;;;;;;;4.81;67.78;101593.41;7388600;19;20011;-58
2023/03/29 04:20:25;;;;;;;16.00;10.45;;;;;;;4.80;68.21;101584.66;7389418;19;20003;-59
2023/03/29 04:22:51;;;;;;;17.38;10.18;;;;;;;4.88;68.16;101583.44;7388872;19;20029;-60
2023/03/29 04:25:18;;;;;;;15.35;9.98;;;;;;;4.74;68.22;101579.63;7392423;19;19995;-58
2023/03/29 04:27:44;;;;;;;16.75;10.13;;;;;;;4.70;69.05;101577.22;7398896;19;20007;-59
2023/03/29 04:30:11;;;;;;;15.75;9.60;;;;;;;4.72;68.66;101581.50;7396133;19;20003;-59
2023/03/29 04:32:37;;;;;;;17.48;9.80;;;;;;;4.78;68.48;101585.63;7394054;19;20074;-59
2023/03/29 04:35:04;;;;;;;19.88;10.25;;;;;;;4.71;69.11;101585.03;7396192;19;20002;-58
2023/03/29 04:37:31;;;;;;;17.13;10.20;;;;;;;4.74;69.02;101589.31;7393773;19;20022;-59
2023/03/29 04:40:01;;;;;;;16.10;9.73;;;;;;;4.82;68.61;101582.78;7398821;19;19999;-59
2023/03/29 04:42:27;;;;;;;15.35;9.15;;;;;;;4.89;68.66;101579.88;7395785;19;20029;-58
2023/03/29 04:44:53;;;;;;;15.10;9.52;;;;;;;4.80;68.93;101581.16;7395195;19;19995;-59
2023/03/29 04:47:20;;;;;;;17.20;9.57;;;;;;;4.68;69.47;101579.06;7395301;19;20006;-60
2023/03/29 04:49:45;;;;;;;13.35;8.13;;;;;;;4.72;69.40;101573.59;7397533;19;20070;-59
2023/03/29 04:52:11;;;;;;;14.80;9.07;;;;;;;4.72;69.24;101576.25;7394833;19;20011;-58
2023/03/29 04:54:37;;;;;;;15.13;9.57;;;;;;;4.80;69.12;101578.53;7396585;19;20457;-58
2023/03/29 04:57:09;;;;;;;15.25;8.82;;;;;;;4.85;69.20;101579.16;7394649;19;20002;-59
2023/03/29 04:59:35;;;;;;;13.95;8.38;;;;;;;4.76;69.25;101577.81;7397524;19;20014;-59
2023/03/29 05:02:02;;;;;;;15.88;8.88;;;;;;;4.68;69.61;101569.41;7396200;19;20002;-59
2023/03/29 05:04:28;;;;;;;13.48;8.18;;;;;;;4.80;69.35;101568.00;7395429;19;19998;-59
2023/03/29 05:06:54;;;;;;;12.70;7.85;;;;;;;4.87;69.12;101563.28;7394671;19;20344;-59
2023/03/29 05:09:21;;;;;;;13.52;8.02;;;;;;;4.94;68.81;101560.31;7397098;19;20002;-59
2023/03/29 05:11:46;;;;;;;11.57;7.13;;;;;;;4.88;69.13;101559.75;7396052;19;19994;-59
2023/03/29 05:14:12;;;;;;;12.90;7.45;;;;;;;4.77;69.28;101549.72;7397315;19;20466;-59
2023/03/29 05:16:37;;;;;;;13.18;7.20;;;;;;;4.84;69.09;101556.41;7393532;19;20018;-58
2023/03/29 05:19:03;;;;;;;12.45;7.40;;;;;;;4.78;69.14;101547.00;7396277;19;20012;-59
2023/03/29 05:21:29;;;;;;;12.18;6.75;;;;;;;4.81;69.37;101541.59;7397111;19;20023;-58
2023/03/29 05:23:54;;;;;;;11.52;6.63;;;;;;;4.78;69.58;101541.72;7395424;19;20289;-57
2023/03/29 05:26:21;;;;;;;14.55;6.68;;;;;;;4.85;69.56;101542.31;7393851;19;20674;-59
2023/03/29 05:28:50;;;;;;;12.65;6.70;;;;;;;4.73;69.76;101537.59;7396080;19;20014;-58
2023/03/29 05:31:17;;;;;;;11.32;6.57;;;;;;;4.84;69.21;101543.25;7396369;19;20021;-58
2023/03/29 05:33:43;;;;;;;11.85;6.05;;;;;;;4.86;69.14;101551.06;7393203;19;20003;-58
2023/03/29 05:36:13;;;;;;;10.55;6.00;;;;;;;4.95;68.75;101551.50;7393201;19;20028;-59
2023/03/29 05:38:39;;;;;;;15.13;6.30;;;;;;;4.91;69.25;101535.94;7394357;19;20390;-58
2023/03/29 05:41:05;;;;;;;10.13;5.85;;;;;;;4.92;69.09;101542.91;7396876;19;20007;-57
2023/03/29 05:43:33;;;;;;;10.60;6.22;;;;;;;4.99;68.52;101541.69;7395897;19;20023;-59
2023/03/29 05:45:59;;;;;;;11.13;5.82;;;;;;;5.03;68.78;101544.09;7392688;19;20002;-59
2023/03/29 05:48:26;;;;;;;10.55;5.90;;;;;;;5.12;68.12;101540.19;7396145;19;19999;-59
2023/03/29 05:50:53;;;;;;;11.95;5.65;;;;;;;5.05;68.43;101538.75;7396032;19;19998;-58
2023/03/29 05:53:21;;;;;;;11.57;5.35;;;;;;;4.97;68.89;101536.47;7393124;19;20328;-58
2023/03/29 05:55:46;;;;;;;10.55;5.25;;;;;;;5.05;68.61;101544.03;7393163;19;20350;-57
2023/03/29 05:58:14;;;;;;;11.48;5.28;;;;;;;5.13;68.67;101543.66;7395796;19;20005;-58
2023/03/29 06:00:40;;;;;;;11.90;5.07;;;;;;;5.14;68.51;101553.31;7393034;19;20006;-59
2023/03/29 06:03:12;;;;;;;11.77;5.45;;;;;;;5.09;68.66;101546.44;7393782;19;20097;-59
2023/03/29 06:05:39;;;;;;;12.18;5.35;;;;;;;5.21;68.90;101544.16;7393570;19;20025;-59
2023/03/29 06:08:05;;;;;;;13.80;5.88;;;;;;;5.23;68.48;101548.44;7393172;19;20026;-58
2023/03/29 06:10:31;;;;;;;9.75;5.15;;;;;;;5.25;68.87;101548.34;7394912;19;20344;-58
2023/03/29 06:12:57;;;;;;;9.77;5.30;;;;;;;5.29;68.49;101542.91;7392760;19;20401;-58
2023/03/29 06:15:23;;;;;;;11.23;5.63;;;;;;;5.34;68.50;101547.94;7392963;19;20009;-58
2023/03/29 06:17:48;;;;;;;11.93;5.30;;;;;;;5.32;68.86;101541.88;7393777;19;20007;-59
2023/03/29 06:20:14;;;;;;;9.15;5.47;;;;;;;5.35;68.71;101539.09;7392368;19;20018;-59
2023/03/29 06:22:40;;;;;;;10.15;4.93;;;;;;;5.38;69.12;101543.38;7394048;19;20028;-59
2023/03/29 06:25:09;;;;;;;10.07;5.00;;;;;;;5.48;68.66;101531.47;7393749;19;19994;-59
2023/03/29 06:27:35;;;;;;;10.40;4.85;;;;;;;5.61;68.15;101535.22;7395165;19;20208;-58
2023/03/29 06:30:02;;;;;;;10.43;5.30;;;;;;;5.62;68.27;101538.69;7393110;19;20062;-58
2023/03/29 06:32:35;;;;;;;9.68;4.63;;;;;;;5.45;69.12;101537.75;7392464;19;19998;-58
2023/03/29 06:35:01;;;;;;;9.77;5.03;;;;;;;5.24;69.74;101541.38;7393601;19;20006;-58
2023/03/29 06:37:27;;;;;;;11.00;5.10;;;;;;;5.33;69.57;101538.34;7391298;19;20018;-58
2023/03/29 06:39:53;;;;;;;10.57;5.35;;;;;;;5.37;69.65;101544.31;7392441;19;20036;-58
2023/03/29 06:42:19;;;;;;;9.70;5.18;;;;;;;5.33;69.87;101544.47;7391071;19;20593;-58
2023/03/29 06:44:45;;;;;;;11.23;5.40;;;;;;;5.38;69.66;101548.66;7393819;19;20015;-58
2023/03/29 06:47:12;;;;;;;9.50;5.18;;;;;;;5.38;69.38;101541.59;7389402;19;20021;-59
2023/03/29 06:49:38;;;;;;;9.20;4.60;;;;;;;5.42;69.21;101548.44;7392963;19;20002;-58
2023/03/29 06:52:04;;;;;;;8.88;4.88;;;;;;;5.54;69.10;101546.97;7391638;19;20027;-58
2023/03/29 06:54:30;;;;;;;9.57;4.88;;;;;;;5.57;68.71;101542.41;7393680;19;20003;-58
2023/03/29 06:56:56;;;;;;;9.93;5.20;;;;;;;5.63;68.57;101543.91;7391672;19;20022;-58
2023/03/29 06:59:22;;;;;;;10.48;4.80;;;;;;;5.67;68.78;101542.84;7394102;19;19994;-59
2023/03/29 07:01:48;;;;;;;9.65;4.95;;;;;;;5.71;68.36;101535.63;7393095;19;20006;-59
2023/03/29 07:04:13;;;;;;;8.40;4.75;;;;;;;5.70;68.48;101539.19;7392966;19;20017;-58
2023/03/29 07:06:39;;;;;;;10.43;4.95;;;;;;;5.56;69.18;101537.22;7389475;19;20062;-58
2023/03/29 07:09:15;;;;;;;9.23;4.78;;;;;;;5.42;69.52;101529.97;7391008;19;20119;-58
2023/03/29 07:11:42;;;;;;;9.57;4.70;;;;;;;5.51;69.23;101528.69;7392230;19;20435;-58
2023/03/29 07:14:08;;;;;;;11.15;5.18;;;;;;;5.52;69.26;101533.03;7391105;19;20066;-59
2023/03/29 07:16:48;;;;;;;11.35;4.63;;;;;;;5.65;68.97;101528.00;7391520;19;20006;-59
2023/03/29 07:19:14;;;;;;;8.80;4.80;;;;;;;5.77;68.54;101535.31;7390501;19;20351;-59
2023/03/29 07:21:40;;;;;;;10.02;5.00;;;;;;;5.88;68.30;101530.38;7392756;19;19994;-59
2023/03/29 07:24:06;;;;;;;10.80;5.07;;;;;;;5.95;67.60;101531.75;7393000;19;20013;-58
2023/03/29 07:26:31;;;;;;;9.05;4.70;;;;;;;5.88;67.88;101535.63;7391226;19;20002;-58
2023/03/29 07:28:57;;;;;;;10.25;5.05;;;;;;;5.98;67.77;101541.31;7392297;19;20479;-58
2023/03/29 07:31:23;;;;;;;10.23;5.32;;;;;;;6.00;67.51;101539.44;7390232;19;19991;-58
2023/03/29 07:33:52;;;;;;;9.10;5.05;;;;;;;6.05;67.75;101543.56;7389622;19;19991;-58
2023/03/29 07:36:18;;;;;;;9.95;5.40;;;;;;;6.02;67.65;101540.22;7388754;19;19998;-58
2023/03/29 07:38:44;;;;;;;10.27;4.88;;;;;;;6.00;67.86;101540.28;7392451;19;20002;-59
2023/03/29 07:41:09;;;;;;;10.30;5.03;;;;;;;6.06;67.77;101541.78;7390489;19;20475;-58
2023/03/29 07:43:35;;;;;;;10.13;5.68;;;;;;;6.07;67.38;101546.13;7390955;19;19995;-58
2023/03/29 07:46:03;;;;;;;9.90;5.00;;;;;;;6.11;67.31;101549.47;7389755;19;19995;-58
2023/03/29 07:48:29;;;;;;;10.38;4.88;;;;;;;6.05;67.75;101554.13;7391755;19;20003;-58
2023/03/29 07:50:55;;;;;;;11.50;4.88;;;;;;;6.10;67.59;101559.16;7391450;19;19997;-58
2023/03/29 07:53:21;;;;;;;10.10;4.60;;;;;;;6.11;67.47;101549.47;7389784;19;20013;-58
2023/03/29 07:55:51;;;;;;;7.90;4.07;;;;;;;6.18;67.23;101542.94;7390806;19;20054;-58
2023/03/29 07:58:16;;;;;;;9.32;4.60;;;;;;;6.27;66.72;101543.31;7391215;19;19998;-58
2023/03/29 08:00:42;;;;;;;9.00;4.90;;;;;;;6.30;66.76;101544.94;7390767;19;20002;-59
2023/03/29 08:03:11;;;;;;;9.63;4.97;;;;;;;6.28;67.04;101537.13;7390962;19;20095;-58
2023/03/29 08:05:38;;;;;;;10.25;5.00;;;;;;;6.31;66.54;101544.00;7390404;19;20022;-59
2023/03/29 08:08:04;;;;;;;10.40;4.97;;;;;;;6.24;66.98;101537.34;7389913;19;20012;-58
2023/03/29 08:10:29;;;;;;;9.13;4.78;;;;;;;6.31;66.62;101539.56;7389692;19;20002;-58
2023/03/29 08:12:55;;;;;;;11.02;5.32;;;;;;;6.37;66.63;101545.50;7389514;19;20471;-57
2023/03/29 08:15:21;;;;;;;10.80;5.07;;;;;;;6.09;67.58;101544.28;7388070;19;20510;-57
2023/03/29 08:17:49;;;;;;;12.02;5.30;;;;;;;6.16;67.32;101542.16;7388858;19;20082;-58
2023/03/29 08:20:15;;;;;;;12.32;5.57;;;;;;;6.25;67.21;101539.91;7390928;19;20107;-59
2023/03/29 08:22:40;;;;;;;12.52;5.80;;;;;;;6.33;67.12;101531.59;7390722;19;20003;-58
2023/03/29 08:25:07;;;;;;;11.30;5.35;;;;;;;6.34;66.99;101538.56;7390129;19;19994;-59
2023/03/29 08:27:36;;;;;;;9.60;5.13;;;;;;;6.21;67.49;101532.25;7391250;19;20009;-58
2023/03/29 08:30:03;;;;;;;11.80;5.32;;;;;;;6.28;67.49;101537.13;7388889;19;20010;-58
2023/03/29 08:32:30;;;;;;;10.80;4.90;;;;;;;6.38;67.04;101529.59;7390031;19;20010;-58
2023/03/29 08:34:56;;;;;;;12.98;5.60;;;;;;;6.53;67.00;101528.78;7389260;19;20010;-58
2023/03/29 08:37:23;;;;;;;12.20;5.72;;;;;;;6.57;66.69;101531.28;7388662;19;20450;-58
2023/03/29 08:39:49;;;;;;;12.95;5.95;;;;;;;6.66;66.69;101531.66;7391338;19;20002;-58
2023/03/29 08:42:50;;;;;;;13.02;5.50;;;;;;;6.60;66.66;101534.63;7387465;19;20020;-57
2023/03/29 08:45:50;;;;;;;10.15;5.30;;;;;;;6.71;66.53;101526.13;7388716;19;19999;-58
2023/03/29 08:48:30;;;;;;;11.88;5.65;;;;;;;6.60;66.83;101521.41;7391190;19;20474;-58
2023/03/29 08:51:00;;;;;;;10.45;5.47;;;;;;;6.73;66.37;101519.81;7390252;19;20009;-57
2023/03/29 08:53:46;;;;;;;10.43;5.40;;;;;;;6.98;66.05;101511.41;7386669;19;20011;-58
2023/03/29 08:56:15;;;;;;;12.80;6.50;;;;;;;7.14;65.66;101508.78;7386584;19;20003;-58
2023/03/29 08:58:42;;;;;;;10.45;6.15;;;;;;;7.21;65.24;101517.22;7389967;19;20009;-58
2023/03/29 09:01:10;;;;;;;12.88;6.30;;;;;;;7.09;65.77;101515.28;7388101;19;20002;-58
2023/03/29 09:03:52;;;;;;;11.82;6.60;;;;;;;7.17;66.35;101519.19;7388721;19;19998;-59
2023/03/29 09:06:22;;;;;;;12.32;6.95;;;;;;;6.92;67.37;101524.94;7388904;19;20011;-59
2023/03/29 09:08:51;;;;;;;16.25;6.47;;;;;;;7.01;66.85;101521.81;7390038;19;20066;-59
2023/03/29 09:11:23;;;;;;;10.88;6.55;;;;;;;7.32;65.90;101519.28;7393831;19;20006;-59
2023/03/29 09:14:22;;;;;;;13.60;6.50;;;;;;;7.57;65.52;101516.94;7393952;19;20607;-58
2023/03/29 09:16:50;;;;;;;11.98;6.50;;;;;;;7.75;64.57;101518.50;7394802;19;19995;-57
2023/03/29 09:19:54;;;;;;;13.25;6.85;;;;;;;7.30;66.69;101513.22;7396340;19;20544;-58
2023/03/29 09:22:31;;;;;;;11.18;6.65;;;;;;;7.20;66.83;101520.81;7395665;19;20010;-58
2023/03/29 09:25:23;;;;;;;16.20;7.50;;;;;;;7.15;67.40;101510.47;7394590;19;19999;-58
2023/03/29 09:28:13;;;;;;;12.00;7.40;;;;;;;7.15;67.43;101506.97;7396467;19;20002;-57
2023/03/29 09:30:41;;;;;;;11.60;7.38;;;;;;;7.35;66.75;101500.56;7393299;19;20061;-58
2023/03/29 09:33:07;;;;;;;12.77;7.32;;;;;;;7.41;66.92;101511.66;7394594;19;20002;-58
2023/03/29 09:35:35;;;;;;;13.25;7.68;;;;;;;7.31;66.93;101502.56;7392976;19;20058;-57
2023/03/29 09:38:02;;;;;;;11.80;7.57;;;;;;;7.29;67.49;101507.06;7396710;19;20490;-58
2023/03/29 09:40:46;;;;;;;13.27;8.35;;;;;;;7.17;68.27;101500.69;7394960;19;20317;-58
2023/03/29 09:43:17;;;;;;;14.10;8.02;;;;;;;7.34;67.60;101501.53;7393999;19;19995;-58
2023/03/29 09:45:49;;;;;;;14.77;7.90;;;;;;;7.38;67.52;101495.13;7393784;19;19998;-58
2023/03/29 09:48:18;;;;;;;13.55;8.38;;;;;;;7.36;67.59;101497.88;7395424;19;20534;-58
2023/03/29 09:50:46;;;;;;;14.98;8.10;;;;;;;7.41;67.29;101495.81;7395422;19;20062;-58
2023/03/29 09:53:15;;;;;;;15.70;8.15;;;;;;;7.39;67.90;101494.22;7391763;19;20006;-58
2023/03/29 09:55:43;;;;;;;14.05;9.32;;;;;;;7.27;68.55;101491.31;7392603;19;19994;-59
2023/03/29 09:58:16;;;;;;;16.60;8.93;;;;;;;7.32;68.62;101491.06;7395925;19;19995;-58
2023/03/29 10:00:47;;;;;;;16.87;9.30;;;;;;;7.65;67.82;101495.31;7393895;19;20003;-59
2023/03/29 10:03:24;;;;;;;14.25;8.52;;;;;;;7.82;67.52;101486.44;7394619;19;20279;-59
2023/03/29 10:05:53;;;;;;;17.00;9.35;;;;;;;7.90;66.90;101477.09;7393885;19;19995;-58
2023/03/29 10:08:22;;;;;;;16.75;9.23;;;;;;;7.98;66.94;101474.84;7394684;19;20411;-58
2023/03/29 10:10:48;;;;;;;16.08;8.93;;;;;;;7.86;67.52;101480.88;7395351;19;20347;-58
2023/03/29 10:13:21;;;;;;;13.80;8.88;;;;;;;7.65;68.34;101482.09;7390653;19;20341;-59
2023/03/29 10:15:57;;;;;;;18.30;9.70;;;;;;;7.60;69.15;101492.09;7393667;19;20019;-59
2023/03/29 10:18:23;;;;;;;15.27;8.75;;;;;;;7.39;69.80;101486.28;7393079;19;20007;-58
2023/03/29 10:20:49;;;;;;;15.77;9.32;;;;;;;7.53;69.61;101484.50;7393810;19;20095;-58
2023/03/29 10:23:17;;;;;;;16.73;9.48;;;;;;;7.67;69.12;101486.38;7390572;19;20376;-58
2023/03/29 10:25:44;;;;;;;14.57;9.25;;;;;;;7.77;68.70;101484.06;7392082;19;20002;-59
2023/03/29 10:28:16;;;;;;;13.85;9.63;;;;;;;7.61;69.65;101470.84;7394369;19;19999;-59
2023/03/29 10:30:46;;;;;;;14.90;8.50;;;;;;;7.71;69.23;101479.97;7394613;19;20034;-58
2023/03/29 10:33:18;;;;;;;14.95;9.82;;;;;;;7.69;69.57;101483.63;7390692;19;20002;-61
2023/03/29 10:35:45;;;;;;;18.27;9.77;;;;;;;7.72;69.94;101472.88;7393077;19;20090;-59
2023/03/29 10:38:16;;;;;;;15.27;10.20;;;;;;;7.65;69.88;101472.38;7393952;19;19999;-59
2023/03/29 10:40:48;;;;;;;17.00;10.38;;;;;;;7.82;69.49;101452.88;7393179;19;20018;-59
2023/03/29 10:43:16;;;;;;;16.85;10.10;;;;;;;8.01;69.02;101450.84;7391627;19;19998;-59
2023/03/29 10:45:42;;;;;;;17.30;9.48;;;;;;;8.13;69.23;101451.91;7392718;19;20340;-59
2023/03/29 10:48:13;;;;;;;16.83;10.23;;;;;;;8.22;68.84;101448.69;7394125;19;20003;-59
2023/03/29 10:50:40;;;;;;;15.95;9.35;;;;;;;8.32;68.89;101458.75;7393670;19;20031;-58
2023/03/29 10:53:20;;;;;;;14.45;9.25;;;;;;;8.36;68.47;101453.16;7391888;19;20018;-59
2023/03/29 10:56:00;;;;;;;16.50;9.43;;;;;;;8.38;68.99;101448.66;7392527;19;20010;-59
2023/03/29 10:58:34;;;;;;;15.32;9.65;;;;;;;8.49;69.38;101454.13;7394257;19;20002;-59
2023/03/29 11:01:16;;;;;;;15.25;9.35;;;;;;;8.72;68.93;101454.47;7393000;19;20002;-59
2023/03/29 11:04:05;;;;;;;15.27;10.05;;;;;;;8.88;68.82;101454.38;7392501;19;20070;-58
2023/03/29 11:06:39;;;;;;;19.40;10.38;;;;;;;8.91;68.01;101454.16;7391575;19;20006;-58
2023/03/29 11:09:17;;;;;;;18.60;10.40;;;;;;;8.89;69.03;101454.25;7393176;19;20014;-58
2023/03/29 11:12:00;;;;;;;17.70;9.95;;;;;;;8.92;68.89;101451.41;7392020;19;20025;-59
2023/03/29 11:14:53;;;;;;;18.05;9.77;;;;;;;8.88;68.90;101446.41;7392071;19;20006;-59
2023/03/29 11:17:42;;;;;;;16.90;10.18;;;;;;;8.96;68.54;101452.06;7390765;19;20502;-59
2023/03/29 11:20:22;;;;;;;18.00;10.63;;;;;;;8.90;68.61;101445.34;7392122;19;20483;-59
2023/03/29 11:22:52;;;;;;;19.00;10.70;;;;;;;9.03;68.03;101453.38;7392979;19;19994;-59
2023/03/29 11:25:35;;;;;;;19.27;10.30;;;;;;;8.85;68.79;101451.91;7391949;19;20003;-59
2023/03/29 11:28:28;;;;;;;20.05;10.40;;;;;;;8.79;69.13;101444.34;7393078;19;19998;-59
2023/03/29 11:31:32;;;;;;;15.18;9.85;;;;;;;8.89;69.00;101446.31;7392224;19;20014;-59
2023/03/29 11:34:35;;;;;;;16.77;10.83;;;;;;;8.96;69.15;101437.03;7387023;19;20021;-57
2023/03/29 11:37:03;;;;;;;18.00;11.18;;;;;;;8.96;68.51;101444.13;7389556;19;20772;-57
2023/03/29 11:39:36;;;;;;;17.88;9.75;;;;;;;9.02;68.45;101441.06;7392845;19;19994;-57
2023/03/29 11:42:31;;;;;;;17.35;10.52;;;;;;;9.18;68.66;101440.91;7391304;19;20013;-57